sensor_id;sensor_type;location;lat;lon;timestamp;P1;durP1;ratioP1;P2;durP2;ratioP2
50789;SDS011;37287;47.554;7.844;2023-02-22T00:00:42;7.45;;;4.82;;
50789;SDS011;37287;47.554;7.844;2023-02-22T00:03:14;7.45;;;5.90;;
50789;SDS011;37287;47.554;7.844;2023-02-22T00:05:45;7.97;;;5.45;;
50789;SDS011;37287;47.554;7.844;2023-02-22T00:08:13;7.22;;;4.78;;
50789;SDS011;37287;47.554;7.844;2023-02-22T00:10:40;7.88;;;5.45;;
50789;SDS011;37287;47.554;7.844;2023-02-22T00:13:12;7.95;;;5.10;;
50789;SDS011;37287;47.554;7.844;2023-02-22T00:15:39;8.05;;;5.55;;
50789;SDS011;37287;47.554;7.844;2023-02-22T00:18:07;7.07;;;5.07;;
50789;SDS011;37287;47.554;7.844;2023-02-22T00:20:37;11.45;;;6.50;;
50789;SDS011;37287;47.554;7.844;2023-02-22T00:23:06;8.43;;;5.80;;
50789;SDS011;37287;47.554;7.844;2023-02-22T00:25:33;7.03;;;5.38;;
50789;SDS011;37287;47.554;7.844;2023-02-22T00:28:01;9.20;;;5.63;;
50789;SDS011;37287;47.554;7.844;2023-02-22T00:30:30;8.05;;;5.25;;
50789;SDS011;37287;47.554;7.844;2023-02-22T00:33:01;8.85;;;6.13;;
50789;SDS011;37287;47.554;7.844;2023-02-22T00:35:30;9.90;;;6.20;;
50789;SDS011;37287;47.554;7.844;2023-02-22T00:37:58;10.02;;;6.57;;
50789;SDS011;37287;47.554;7.844;2023-02-22T00:40:27;7.38;;;5.68;;
50789;SDS011;37287;47.554;7.844;2023-02-22T00:43:01;8.30;;;6.13;;
50789;SDS011;37287;47.554;7.844;2023-02-22T00:45:30;7.65;;;5.38;;
50789;SDS011;37287;47.554;7.844;2023-02-22T00:47:58;7.38;;;5.18;;
50789;SDS011;37287;47.554;7.844;2023-02-22T00:50:27;6.47;;;4.85;;
50789;SDS011;37287;47.554;7.844;2023-02-22T00:52:55;6.43;;;5.32;;
50789;SDS011;37287;47.554;7.844;2023-02-22T00:55:24;11.35;;;5.53;;
50789;SDS011;37287;47.554;7.844;2023-02-22T00:57:57;8.02;;;4.85;;
50789;SDS011;37287;47.554;7.844;2023-02-22T01:00:32;6.15;;;4.68;;
50789;SDS011;37287;47.554;7.844;2023-02-22T01:03:02;6.20;;;5.18;;
50789;SDS011;37287;47.554;7.844;2023-02-22T01:05:31;9.48;;;5.28;;
50789;SDS011;37287;47.554;7.844;2023-02-22T01:08:00;4.90;;;4.20;;
50789;SDS011;37287;47.554;7.844;2023-02-22T01:10:29;8.57;;;4.75;;
50789;SDS011;37287;47.554;7.844;2023-02-22T01:12:57;7.38;;;4.70;;
50789;SDS011;37287;47.554;7.844;2023-02-22T01:15:26;7.90;;;5.00;;
50789;SDS011;37287;47.554;7.844;2023-02-22T01:17:58;5.32;;;3.90;;
50789;SDS011;37287;47.554;7.844;2023-02-22T01:20:28;8.68;;;5.18;;
50789;SDS011;37287;47.554;7.844;2023-02-22T01:22:57;5.45;;;4.50;;
50789;SDS011;37287;47.554;7.844;2023-02-22T01:25:27;7.43;;;4.53;;
50789;SDS011;37287;47.554;7.844;2023-02-22T01:27:55;5.93;;;4.32;;
50789;SDS011;37287;47.554;7.844;2023-02-22T01:30:24;5.47;;;4.47;;
50789;SDS011;37287;47.554;7.844;2023-02-22T01:32:59;6.55;;;4.25;;
50789;SDS011;37287;47.554;7.844;2023-02-22T01:35:30;5.80;;;4.60;;
50789;SDS011;37287;47.554;7.844;2023-02-22T01:37:59;5.22;;;3.85;;
50789;SDS011;37287;47.554;7.844;2023-02-22T01:40:28;5.85;;;4.68;;
50789;SDS011;37287;47.554;7.844;2023-02-22T01:42:59;6.63;;;4.97;;
50789;SDS011;37287;47.554;7.844;2023-02-22T01:45:37;5.22;;;4.30;;
50789;SDS011;37287;47.554;7.844;2023-02-22T01:48:23;4.50;;;3.83;;
50789;SDS011;37287;47.554;7.844;2023-02-22T01:51:07;7.93;;;5.43;;
50789;SDS011;37287;47.554;7.844;2023-02-22T01:53:51;8.17;;;5.67;;
50789;SDS011;37287;47.554;7.844;2023-02-22T01:56:22;5.93;;;4.60;;
50789;SDS011;37287;47.554;7.844;2023-02-22T01:58:53;5.75;;;4.88;;
50789;SDS011;37287;47.554;7.844;2023-02-22T02:01:24;7.22;;;4.43;;
50789;SDS011;37287;47.554;7.844;2023-02-22T02:03:53;9.60;;;6.28;;
50789;SDS011;37287;47.554;7.844;2023-02-22T02:06:26;6.97;;;5.30;;
50789;SDS011;37287;47.554;7.844;2023-02-22T02:08:58;6.18;;;4.78;;
50789;SDS011;37287;47.554;7.844;2023-02-22T02:11:31;7.05;;;5.00;;
50789;SDS011;37287;47.554;7.844;2023-02-22T02:13:58;6.72;;;4.85;;
50789;SDS011;37287;47.554;7.844;2023-02-22T02:16:34;7.40;;;5.22;;
50789;SDS011;37287;47.554;7.844;2023-02-22T02:19:10;7.78;;;5.15;;
50789;SDS011;37287;47.554;7.844;2023-02-22T02:22:00;6.80;;;4.82;;
50789;SDS011;37287;47.554;7.844;2023-02-22T02:27:27;4.82;;;3.88;;
50789;SDS011;37287;47.554;7.844;2023-02-22T02:33:04;5.25;;;3.85;;
50789;SDS011;37287;47.554;7.844;2023-02-22T02:36:15;5.30;;;4.10;;
50789;SDS011;37287;47.554;7.844;2023-02-22T02:41:31;5.57;;;4.55;;
50789;SDS011;37287;47.554;7.844;2023-02-22T02:44:04;6.82;;;4.85;;
50789;SDS011;37287;47.554;7.844;2023-02-22T02:46:34;6.30;;;4.70;;
50789;SDS011;37287;47.554;7.844;2023-02-22T02:49:12;6.07;;;4.18;;
50789;SDS011;37287;47.554;7.844;2023-02-22T02:51:46;6.30;;;4.50;;
50789;SDS011;37287;47.554;7.844;2023-02-22T02:54:16;7.60;;;4.55;;
50789;SDS011;37287;47.554;7.844;2023-02-22T02:56:44;6.65;;;4.40;;
50789;SDS011;37287;47.554;7.844;2023-02-22T02:59:24;8.85;;;4.68;;
50789;SDS011;37287;47.554;7.844;2023-02-22T03:02:15;5.13;;;4.05;;
50789;SDS011;37287;47.554;7.844;2023-02-22T03:15:54;5.35;;;3.80;;
50789;SDS011;37287;47.554;7.844;2023-02-22T03:19:13;4.50;;;3.33;;
50789;SDS011;37287;47.554;7.844;2023-02-22T03:21:44;5.40;;;4.05;;
50789;SDS011;37287;47.554;7.844;2023-02-22T03:24:26;4.60;;;3.80;;
50789;SDS011;37287;47.554;7.844;2023-02-22T03:27:05;5.25;;;4.10;;
50789;SDS011;37287;47.554;7.844;2023-02-22T03:29:40;4.82;;;4.03;;
50789;SDS011;37287;47.554;7.844;2023-02-22T03:32:14;6.40;;;4.03;;
50789;SDS011;37287;47.554;7.844;2023-02-22T03:34:52;6.00;;;3.88;;
50789;SDS011;37287;47.554;7.844;2023-02-22T03:37:27;8.40;;;4.97;;
50789;SDS011;37287;47.554;7.844;2023-02-22T03:39:58;5.50;;;4.38;;
50789;SDS011;37287;47.554;7.844;2023-02-22T03:42:43;8.75;;;5.13;;
50789;SDS011;37287;47.554;7.844;2023-02-22T03:45:14;13.27;;;7.05;;
50789;SDS011;37287;47.554;7.844;2023-02-22T03:47:47;10.35;;;5.70;;
50789;SDS011;37287;47.554;7.844;2023-02-22T03:50:18;6.40;;;5.28;;
50789;SDS011;37287;47.554;7.844;2023-02-22T03:52:47;8.30;;;5.25;;
50789;SDS011;37287;47.554;7.844;2023-02-22T03:55:14;8.77;;;5.22;;
50789;SDS011;37287;47.554;7.844;2023-02-22T03:57:53;8.13;;;4.90;;
50789;SDS011;37287;47.554;7.844;2023-02-22T04:00:26;6.18;;;4.78;;
50789;SDS011;37287;47.554;7.844;2023-02-22T04:02:56;6.57;;;4.82;;
50789;SDS011;37287;47.554;7.844;2023-02-22T04:05:23;6.20;;;4.63;;
50789;SDS011;37287;47.554;7.844;2023-02-22T04:07:58;7.35;;;5.20;;
50789;SDS011;37287;47.554;7.844;2023-02-22T04:10:24;8.05;;;5.63;;
50789;SDS011;37287;47.554;7.844;2023-02-22T04:12:51;8.82;;;5.50;;
50789;SDS011;37287;47.554;7.844;2023-02-22T04:15:22;7.97;;;5.70;;
50789;SDS011;37287;47.554;7.844;2023-02-22T04:17:49;9.25;;;6.28;;
50789;SDS011;37287;47.554;7.844;2023-02-22T04:20:17;9.80;;;6.50;;
50789;SDS011;37287;47.554;7.844;2023-02-22T04:22:45;9.70;;;5.90;;
50789;SDS011;37287;47.554;7.844;2023-02-22T04:25:16;8.57;;;5.53;;
50789;SDS011;37287;47.554;7.844;2023-02-22T04:27:43;8.13;;;5.40;;
50789;SDS011;37287;47.554;7.844;2023-02-22T04:30:10;6.63;;;5.47;;
50789;SDS011;37287;47.554;7.844;2023-02-22T04:32:38;6.82;;;5.32;;
50789;SDS011;37287;47.554;7.844;2023-02-22T04:35:05;9.27;;;5.15;;
50789;SDS011;37287;47.554;7.844;2023-02-22T04:37:38;6.10;;;5.20;;
50789;SDS011;37287;47.554;7.844;2023-02-22T04:40:05;7.55;;;5.15;;
50789;SDS011;37287;47.554;7.844;2023-02-22T04:42:33;9.25;;;5.35;;
50789;SDS011;37287;47.554;7.844;2023-02-22T04:45:04;11.48;;;5.03;;
50789;SDS011;37287;47.554;7.844;2023-02-22T04:47:33;6.63;;;4.88;;
50789;SDS011;37287;47.554;7.844;2023-02-22T04:50:03;5.90;;;4.03;;
50789;SDS011;37287;47.554;7.844;2023-02-22T04:52:31;5.55;;;4.30;;
50789;SDS011;37287;47.554;7.844;2023-02-22T04:54:57;4.85;;;3.70;;
50789;SDS011;37287;47.554;7.844;2023-02-22T04:57:24;6.63;;;3.90;;
50789;SDS011;37287;47.554;7.844;2023-02-22T04:59:54;4.78;;;3.90;;
50789;SDS011;37287;47.554;7.844;2023-02-22T05:02:21;6.00;;;4.60;;
50789;SDS011;37287;47.554;7.844;2023-02-22T05:04:47;7.85;;;4.43;;
50789;SDS011;37287;47.554;7.844;2023-02-22T05:07:14;6.00;;;4.55;;
50789;SDS011;37287;47.554;7.844;2023-02-22T05:09:41;5.60;;;4.15;;
50789;SDS011;37287;47.554;7.844;2023-02-22T05:12:07;6.03;;;4.20;;
50789;SDS011;37287;47.554;7.844;2023-02-22T05:14:36;5.43;;;4.20;;
50789;SDS011;37287;47.554;7.844;2023-02-22T05:17:02;7.53;;;4.10;;
50789;SDS011;37287;47.554;7.844;2023-02-22T05:19:29;6.93;;;4.60;;
50789;SDS011;37287;47.554;7.844;2023-02-22T05:21:56;5.03;;;3.95;;
50789;SDS011;37287;47.554;7.844;2023-02-22T05:24:22;5.00;;;3.88;;
50789;SDS011;37287;47.554;7.844;2023-02-22T05:26:49;6.70;;;3.90;;
50789;SDS011;37287;47.554;7.844;2023-02-22T05:29:18;7.45;;;4.22;;
50789;SDS011;37287;47.554;7.844;2023-02-22T05:31:46;4.78;;;4.05;;
50789;SDS011;37287;47.554;7.844;2023-02-22T05:34:13;5.75;;;4.32;;
50789;SDS011;37287;47.554;7.844;2023-02-22T05:36:40;8.32;;;4.10;;
50789;SDS011;37287;47.554;7.844;2023-02-22T05:39:06;6.03;;;4.55;;
50789;SDS011;37287;47.554;7.844;2023-02-22T05:41:33;5.65;;;4.28;;
50789;SDS011;37287;47.554;7.844;2023-02-22T05:44:00;6.25;;;4.60;;
50789;SDS011;37287;47.554;7.844;2023-02-22T05:46:28;5.93;;;4.15;;
50789;SDS011;37287;47.554;7.844;2023-02-22T05:48:55;4.28;;;3.70;;
50789;SDS011;37287;47.554;7.844;2023-02-22T05:51:30;4.53;;;3.80;;
50789;SDS011;37287;47.554;7.844;2023-02-22T05:53:56;6.05;;;4.05;;
50789;SDS011;37287;47.554;7.844;2023-02-22T05:56:24;5.85;;;4.00;;
50789;SDS011;37287;47.554;7.844;2023-02-22T05:58:52;5.72;;;4.38;;
50789;SDS011;37287;47.554;7.844;2023-02-22T06:01:22;5.97;;;4.63;;
50789;SDS011;37287;47.554;7.844;2023-02-22T06:03:49;5.55;;;4.53;;
50789;SDS011;37287;47.554;7.844;2023-02-22T06:06:18;6.10;;;4.40;;
50789;SDS011;37287;47.554;7.844;2023-02-22T06:08:48;5.53;;;3.95;;
50789;SDS011;37287;47.554;7.844;2023-02-22T06:11:14;6.55;;;4.05;;
50789;SDS011;37287;47.554;7.844;2023-02-22T06:13:49;6.43;;;3.92;;
50789;SDS011;37287;47.554;7.844;2023-02-22T06:16:17;8.75;;;5.82;;
50789;SDS011;37287;47.554;7.844;2023-02-22T06:18:44;6.00;;;4.60;;
50789;SDS011;37287;47.554;7.844;2023-02-22T06:21:13;11.73;;;4.18;;
50789;SDS011;37287;47.554;7.844;2023-02-22T06:23:43;6.00;;;4.53;;
50789;SDS011;37287;47.554;7.844;2023-02-22T06:26:09;6.65;;;4.78;;
50789;SDS011;37287;47.554;7.844;2023-02-22T06:28:36;6.47;;;4.82;;
50789;SDS011;37287;47.554;7.844;2023-02-22T06:31:03;6.40;;;5.10;;
50789;SDS011;37287;47.554;7.844;2023-02-22T06:33:29;9.82;;;5.53;;
50789;SDS011;37287;47.554;7.844;2023-02-22T06:35:56;7.88;;;5.30;;
50789;SDS011;37287;47.554;7.844;2023-02-22T06:38:25;9.05;;;5.68;;
50789;SDS011;37287;47.554;7.844;2023-02-22T06:40:53;10.13;;;5.35;;
50789;SDS011;37287;47.554;7.844;2023-02-22T06:43:23;8.60;;;5.72;;
50789;SDS011;37287;47.554;7.844;2023-02-22T06:45:51;9.18;;;5.68;;
50789;SDS011;37287;47.554;7.844;2023-02-22T06:48:18;12.35;;;6.43;;
50789;SDS011;37287;47.554;7.844;2023-02-22T06:50:46;14.82;;;6.78;;
50789;SDS011;37287;47.554;7.844;2023-02-22T06:53:12;7.15;;;5.50;;
50789;SDS011;37287;47.554;7.844;2023-02-22T06:55:39;8.25;;;5.85;;
50789;SDS011;37287;47.554;7.844;2023-02-22T06:58:06;6.47;;;5.05;;
50789;SDS011;37287;47.554;7.844;2023-02-22T07:00:34;7.38;;;5.15;;
50789;SDS011;37287;47.554;7.844;2023-02-22T07:03:01;12.43;;;5.82;;
50789;SDS011;37287;47.554;7.844;2023-02-22T07:05:31;8.18;;;5.63;;
50789;SDS011;37287;47.554;7.844;2023-02-22T07:08:02;9.45;;;5.68;;
50789;SDS011;37287;47.554;7.844;2023-02-22T07:10:31;8.27;;;5.40;;
50789;SDS011;37287;47.554;7.844;2023-02-22T07:13:00;9.15;;;5.72;;
50789;SDS011;37287;47.554;7.844;2023-02-22T07:15:28;9.05;;;5.93;;
50789;SDS011;37287;47.554;7.844;2023-02-22T07:17:55;10.43;;;5.63;;
50789;SDS011;37287;47.554;7.844;2023-02-22T07:20:22;10.25;;;4.90;;
50789;SDS011;37287;47.554;7.844;2023-02-22T07:22:52;6.82;;;4.80;;
50789;SDS011;37287;47.554;7.844;2023-02-22T07:25:19;6.53;;;4.57;;
50789;SDS011;37287;47.554;7.844;2023-02-22T07:27:54;5.53;;;4.65;;
50789;SDS011;37287;47.554;7.844;2023-02-22T07:30:22;8.55;;;5.93;;
50789;SDS011;37287;47.554;7.844;2023-02-22T07:32:56;9.45;;;5.72;;
50789;SDS011;37287;47.554;7.844;2023-02-22T07:35:26;7.05;;;5.80;;
50789;SDS011;37287;47.554;7.844;2023-02-22T07:38:02;12.75;;;6.28;;
50789;SDS011;37287;47.554;7.844;2023-02-22T07:40:31;9.45;;;5.72;;
50789;SDS011;37287;47.554;7.844;2023-02-22T07:42:58;11.60;;;6.85;;
50789;SDS011;37287;47.554;7.844;2023-02-22T07:45:46;8.55;;;5.60;;
50789;SDS011;37287;47.554;7.844;2023-02-22T07:48:16;9.02;;;4.95;;
50789;SDS011;37287;47.554;7.844;2023-02-22T07:50:44;6.70;;;5.20;;
50789;SDS011;37287;47.554;7.844;2023-02-22T07:53:23;6.00;;;4.22;;
50789;SDS011;37287;47.554;7.844;2023-02-22T07:55:54;9.45;;;5.03;;
50789;SDS011;37287;47.554;7.844;2023-02-22T07:58:23;7.97;;;5.13;;
50789;SDS011;37287;47.554;7.844;2023-02-22T08:00:52;4.40;;;3.80;;
50789;SDS011;37287;47.554;7.844;2023-02-22T08:03:21;5.88;;;4.43;;
50789;SDS011;37287;47.554;7.844;2023-02-22T08:05:52;5.28;;;4.20;;
50789;SDS011;37287;47.554;7.844;2023-02-22T08:08:20;5.30;;;4.03;;
50789;SDS011;37287;47.554;7.844;2023-02-22T08:10:48;6.28;;;4.65;;
50789;SDS011;37287;47.554;7.844;2023-02-22T08:13:20;4.55;;;3.83;;
50789;SDS011;37287;47.554;7.844;2023-02-22T08:15:49;5.85;;;4.70;;
50789;SDS011;37287;47.554;7.844;2023-02-22T08:18:19;5.68;;;4.30;;
50789;SDS011;37287;47.554;7.844;2023-02-22T08:20:49;7.78;;;4.25;;
50789;SDS011;37287;47.554;7.844;2023-02-22T08:23:19;7.18;;;4.05;;
50789;SDS011;37287;47.554;7.844;2023-02-22T08:25:47;4.53;;;3.72;;
50789;SDS011;37287;47.554;7.844;2023-02-22T08:28:16;4.45;;;3.55;;
50789;SDS011;37287;47.554;7.844;2023-02-22T08:30:45;5.30;;;4.10;;
50789;SDS011;37287;47.554;7.844;2023-02-22T08:33:12;4.43;;;3.65;;
50789;SDS011;37287;47.554;7.844;2023-02-22T08:35:42;4.47;;;3.67;;
50789;SDS011;37287;47.554;7.844;2023-02-22T08:38:15;6.03;;;3.97;;
50789;SDS011;37287;47.554;7.844;2023-02-22T08:40:51;6.03;;;4.07;;
50789;SDS011;37287;47.554;7.844;2023-02-22T08:43:21;7.65;;;4.30;;
50789;SDS011;37287;47.554;7.844;2023-02-22T08:45:49;5.30;;;3.80;;
50789;SDS011;37287;47.554;7.844;2023-02-22T08:48:17;7.47;;;4.05;;
50789;SDS011;37287;47.554;7.844;2023-02-22T08:50:46;5.13;;;4.38;;
50789;SDS011;37287;47.554;7.844;2023-02-22T08:53:14;6.65;;;4.55;;
50789;SDS011;37287;47.554;7.844;2023-02-22T08:55:48;4.72;;;4.13;;
50789;SDS011;37287;47.554;7.844;2023-02-22T08:58:15;6.22;;;4.55;;
50789;SDS011;37287;47.554;7.844;2023-02-22T09:00:41;5.40;;;4.15;;
50789;SDS011;37287;47.554;7.844;2023-02-22T09:03:12;5.20;;;4.53;;
50789;SDS011;37287;47.554;7.844;2023-02-22T09:05:40;6.63;;;4.88;;
50789;SDS011;37287;47.554;7.844;2023-02-22T09:08:08;7.70;;;4.82;;
50789;SDS011;37287;47.554;7.844;2023-02-22T09:10:34;7.32;;;4.85;;
50789;SDS011;37287;47.554;7.844;2023-02-22T09:13:02;21.92;;;5.20;;
50789;SDS011;37287;47.554;7.844;2023-02-22T09:15:29;8.05;;;5.15;;
50789;SDS011;37287;47.554;7.844;2023-02-22T09:17:57;5.00;;;4.22;;
50789;SDS011;37287;47.554;7.844;2023-02-22T09:20:27;7.63;;;4.63;;
50789;SDS011;37287;47.554;7.844;2023-02-22T09:22:58;5.75;;;4.80;;
50789;SDS011;37287;47.554;7.844;2023-02-22T09:25:26;7.15;;;5.25;;
50789;SDS011;37287;47.554;7.844;2023-02-22T09:27:53;6.15;;;4.50;;
50789;SDS011;37287;47.554;7.844;2023-02-22T09:30:26;6.85;;;5.03;;
50789;SDS011;37287;47.554;7.844;2023-02-22T09:32:59;6.78;;;5.00;;
50789;SDS011;37287;47.554;7.844;2023-02-22T09:35:28;6.65;;;5.13;;
50789;SDS011;37287;47.554;7.844;2023-02-22T09:37:55;6.15;;;5.13;;
50789;SDS011;37287;47.554;7.844;2023-02-22T09:40:24;7.10;;;5.00;;
50789;SDS011;37287;47.554;7.844;2023-02-22T09:42:58;6.88;;;5.18;;
50789;SDS011;37287;47.554;7.844;2023-02-22T09:45:33;6.50;;;4.72;;
50789;SDS011;37287;47.554;7.844;2023-02-22T09:48:10;6.03;;;5.20;;
50789;SDS011;37287;47.554;7.844;2023-02-22T09:50:47;11.68;;;5.90;;
50789;SDS011;37287;47.554;7.844;2023-02-22T09:53:24;9.50;;;5.45;;
50789;SDS011;37287;47.554;7.844;2023-02-22T09:56:07;9.90;;;6.35;;
50789;SDS011;37287;47.554;7.844;2023-02-22T09:58:40;7.47;;;5.80;;
50789;SDS011;37287;47.554;7.844;2023-02-22T10:09:41;9.80;;;6.20;;
50789;SDS011;37287;47.554;7.844;2023-02-22T10:18:01;9.00;;;6.57;;
50789;SDS011;37287;47.554;7.844;2023-02-22T10:23:33;7.35;;;6.30;;
50789;SDS011;37287;47.554;7.844;2023-02-22T10:28:38;7.50;;;5.28;;
50789;SDS011;37287;47.554;7.844;2023-02-22T10:31:11;5.95;;;5.32;;
50789;SDS011;37287;47.554;7.844;2023-02-22T10:33:47;6.43;;;5.15;;
50789;SDS011;37287;47.554;7.844;2023-02-22T10:36:22;6.07;;;4.97;;
50789;SDS011;37287;47.554;7.844;2023-02-22T10:38:59;7.88;;;5.50;;
50789;SDS011;37287;47.554;7.844;2023-02-22T10:41:37;5.82;;;5.22;;
50789;SDS011;37287;47.554;7.844;2023-02-22T10:44:13;6.75;;;5.72;;
50789;SDS011;37287;47.554;7.844;2023-02-22T10:46:40;7.50;;;5.57;;
50789;SDS011;37287;47.554;7.844;2023-02-22T10:49:09;12.70;;;6.03;;
50789;SDS011;37287;47.554;7.844;2023-02-22T10:51:38;7.22;;;5.88;;
50789;SDS011;37287;47.554;7.844;2023-02-22T10:56:47;10.18;;;6.38;;
50789;SDS011;37287;47.554;7.844;2023-02-22T10:59:25;8.10;;;5.75;;
50789;SDS011;37287;47.554;7.844;2023-02-22T11:01:59;7.55;;;5.60;;
50789;SDS011;37287;47.554;7.844;2023-02-22T11:04:46;6.75;;;4.95;;
50789;SDS011;37287;47.554;7.844;2023-02-22T11:07:19;7.20;;;5.43;;
50789;SDS011;37287;47.554;7.844;2023-02-22T11:09:53;7.40;;;5.72;;
50789;SDS011;37287;47.554;7.844;2023-02-22T11:12:32;6.15;;;5.13;;
50789;SDS011;37287;47.554;7.844;2023-02-22T11:17:47;7.30;;;5.03;;
50789;SDS011;37287;47.554;7.844;2023-02-22T11:20:27;6.78;;;5.18;;
50789;SDS011;37287;47.554;7.844;2023-02-22T11:23:01;6.53;;;5.15;;
50789;SDS011;37287;47.554;7.844;2023-02-22T11:25:34;7.75;;;5.28;;
50789;SDS011;37287;47.554;7.844;2023-02-22T11:28:06;8.05;;;5.50;;
50789;SDS011;37287;47.554;7.844;2023-02-22T11:30:35;7.38;;;5.07;;
50789;SDS011;37287;47.554;7.844;2023-02-22T11:35:52;7.20;;;5.38;;
50789;SDS011;37287;47.554;7.844;2023-02-22T11:38:28;8.55;;;5.63;;
50789;SDS011;37287;47.554;7.844;2023-02-22T11:43:48;6.82;;;5.72;;
50789;SDS011;37287;47.554;7.844;2023-02-22T11:46:18;7.50;;;5.35;;
50789;SDS011;37287;47.554;7.844;2023-02-22T11:49:07;7.88;;;5.60;;
50789;SDS011;37287;47.554;7.844;2023-02-22T11:51:55;7.80;;;5.65;;
50789;SDS011;37287;47.554;7.844;2023-02-22T12:02:53;7.15;;;5.35;;
50789;SDS011;37287;47.554;7.844;2023-02-22T12:05:38;7.50;;;5.20;;
50789;SDS011;37287;47.554;7.844;2023-02-22T12:11:34;7.70;;;5.30;;
50789;SDS011;37287;47.554;7.844;2023-02-22T12:17:17;6.57;;;5.88;;
50789;SDS011;37287;47.554;7.844;2023-02-22T12:19:48;7.50;;;5.35;;
50789;SDS011;37287;47.554;7.844;2023-02-22T12:22:21;8.07;;;5.78;;
50789;SDS011;37287;47.554;7.844;2023-02-22T12:25:04;7.07;;;5.50;;
50789;SDS011;37287;47.554;7.844;2023-02-22T12:28:46;7.15;;;5.60;;
50789;SDS011;37287;47.554;7.844;2023-02-22T12:30:51;5.65;;;5.05;;
50789;SDS011;37287;47.554;7.844;2023-02-22T12:33:40;6.63;;;5.38;;
50789;SDS011;37287;47.554;7.844;2023-02-22T12:36:15;9.07;;;5.85;;
50789;SDS011;37287;47.554;7.844;2023-02-22T12:38:48;9.13;;;5.55;;
50789;SDS011;37287;47.554;7.844;2023-02-22T12:44:27;5.68;;;5.00;;
50789;SDS011;37287;47.554;7.844;2023-02-22T12:47:00;7.57;;;5.85;;
50789;SDS011;37287;47.554;7.844;2023-02-22T12:55:24;9.57;;;6.55;;
50789;SDS011;37287;47.554;7.844;2023-02-22T13:01:12;6.10;;;5.30;;
50789;SDS011;37287;47.554;7.844;2023-02-22T13:03:45;7.50;;;5.70;;
50789;SDS011;37287;47.554;7.844;2023-02-22T13:11:54;6.18;;;5.25;;
50789;SDS011;37287;47.554;7.844;2023-02-22T13:19:55;7.50;;;6.20;;
50789;SDS011;37287;47.554;7.844;2023-02-22T13:25:08;8.10;;;6.72;;
50789;SDS011;37287;47.554;7.844;2023-02-22T13:27:53;8.90;;;5.78;;
50789;SDS011;37287;47.554;7.844;2023-02-22T13:35:58;9.13;;;6.72;;
50789;SDS011;37287;47.554;7.844;2023-02-22T13:38:36;7.72;;;6.30;;
50789;SDS011;37287;47.554;7.844;2023-02-22T13:49:57;10.35;;;5.88;;
50789;SDS011;37287;47.554;7.844;2023-02-22T13:52:46;7.78;;;5.88;;
50789;SDS011;37287;47.554;7.844;2023-02-22T13:55:18;9.77;;;5.95;;
50789;SDS011;37287;47.554;7.844;2023-02-22T13:57:58;7.15;;;5.50;;
50789;SDS011;37287;47.554;7.844;2023-02-22T14:03:39;7.80;;;6.15;;
50789;SDS011;37287;47.554;7.844;2023-02-22T14:09:07;8.02;;;6.75;;
50789;SDS011;37287;47.554;7.844;2023-02-22T14:11:41;8.18;;;6.72;;
50789;SDS011;37287;47.554;7.844;2023-02-22T14:14:10;8.27;;;6.80;;
50789;SDS011;37287;47.554;7.844;2023-02-22T14:16:41;10.00;;;6.43;;
50789;SDS011;37287;47.554;7.844;2023-02-22T14:21:34;8.50;;;7.05;;
50789;SDS011;37287;47.554;7.844;2023-02-22T14:24:11;7.78;;;6.95;;
50789;SDS011;37287;47.554;7.844;2023-02-22T14:26:43;9.93;;;7.25;;
50789;SDS011;37287;47.554;7.844;2023-02-22T14:29:20;7.05;;;6.35;;
50789;SDS011;37287;47.554;7.844;2023-02-22T14:34:46;8.18;;;6.90;;
50789;SDS011;37287;47.554;7.844;2023-02-22T14:37:32;9.00;;;6.75;;
50789;SDS011;37287;47.554;7.844;2023-02-22T14:40:05;11.00;;;6.68;;
50789;SDS011;37287;47.554;7.844;2023-02-22T14:42:47;10.23;;;6.72;;
50789;SDS011;37287;47.554;7.844;2023-02-22T14:45:23;9.48;;;7.00;;
50789;SDS011;37287;47.554;7.844;2023-02-22T14:50:53;13.10;;;7.47;;
50789;SDS011;37287;47.554;7.844;2023-02-22T14:53:45;11.98;;;8.90;;
50789;SDS011;37287;47.554;7.844;2023-02-22T14:56:20;11.02;;;8.20;;
50789;SDS011;37287;47.554;7.844;2023-02-22T14:58:53;12.02;;;8.40;;
50789;SDS011;37287;47.554;7.844;2023-02-22T15:01:26;16.48;;;9.15;;
50789;SDS011;37287;47.554;7.844;2023-02-22T15:06:49;12.45;;;8.32;;
50789;SDS011;37287;47.554;7.844;2023-02-22T15:09:21;16.20;;;9.95;;
50789;SDS011;37287;47.554;7.844;2023-02-22T15:14:32;13.60;;;8.93;;
50789;SDS011;37287;47.554;7.844;2023-02-22T15:17:11;18.88;;;9.55;;
50789;SDS011;37287;47.554;7.844;2023-02-22T15:19:43;13.02;;;8.23;;
50789;SDS011;37287;47.554;7.844;2023-02-22T15:22:17;15.70;;;8.50;;
50789;SDS011;37287;47.554;7.844;2023-02-22T15:24:53;8.65;;;7.35;;
50789;SDS011;37287;47.554;7.844;2023-02-22T15:27:26;11.23;;;6.97;;
50789;SDS011;37287;47.554;7.844;2023-02-22T15:30:00;12.02;;;7.50;;
50789;SDS011;37287;47.554;7.844;2023-02-22T15:32:35;9.07;;;7.30;;
50789;SDS011;37287;47.554;7.844;2023-02-22T15:38:02;9.75;;;7.10;;
50789;SDS011;37287;47.554;7.844;2023-02-22T15:40:33;9.27;;;6.32;;
50789;SDS011;37287;47.554;7.844;2023-02-22T15:43:01;9.48;;;7.53;;
50789;SDS011;37287;47.554;7.844;2023-02-22T15:45:30;10.52;;;7.40;;
50789;SDS011;37287;47.554;7.844;2023-02-22T15:48:00;9.10;;;7.13;;
50789;SDS011;37287;47.554;7.844;2023-02-22T15:50:28;8.38;;;6.88;;
50789;SDS011;37287;47.554;7.844;2023-02-22T15:52:59;9.85;;;7.00;;
50789;SDS011;37287;47.554;7.844;2023-02-22T15:55:53;9.23;;;6.80;;
50789;SDS011;37287;47.554;7.844;2023-02-22T15:58:20;8.80;;;6.72;;
50789;SDS011;37287;47.554;7.844;2023-02-22T16:01:02;10.60;;;7.30;;
50789;SDS011;37287;47.554;7.844;2023-02-22T16:03:34;9.35;;;6.85;;
50789;SDS011;37287;47.554;7.844;2023-02-22T16:08:48;10.05;;;7.20;;
50789;SDS011;37287;47.554;7.844;2023-02-22T16:11:23;9.88;;;6.88;;
50789;SDS011;37287;47.554;7.844;2023-02-22T16:14:03;10.00;;;6.80;;
50789;SDS011;37287;47.554;7.844;2023-02-22T16:16:35;9.88;;;7.30;;
50789;SDS011;37287;47.554;7.844;2023-02-22T16:21:57;10.63;;;6.53;;
50789;SDS011;37287;47.554;7.844;2023-02-22T16:27:03;16.63;;;7.85;;
50789;SDS011;37287;47.554;7.844;2023-02-22T16:29:32;15.50;;;8.43;;
50789;SDS011;37287;47.554;7.844;2023-02-22T16:31:58;16.13;;;8.30;;
50789;SDS011;37287;47.554;7.844;2023-02-22T16:34:28;13.80;;;8.02;;
50789;SDS011;37287;47.554;7.844;2023-02-22T16:36:55;15.00;;;8.15;;
50789;SDS011;37287;47.554;7.844;2023-02-22T16:39:23;13.35;;;8.00;;
50789;SDS011;37287;47.554;7.844;2023-02-22T16:41:58;14.48;;;7.45;;
50789;SDS011;37287;47.554;7.844;2023-02-22T16:44:27;12.05;;;7.80;;
50789;SDS011;37287;47.554;7.844;2023-02-22T16:46:55;11.25;;;7.60;;
50789;SDS011;37287;47.554;7.844;2023-02-22T16:49:23;11.02;;;7.35;;
50789;SDS011;37287;47.554;7.844;2023-02-22T16:51:54;8.55;;;7.32;;
50789;SDS011;37287;47.554;7.844;2023-02-22T16:57:02;11.70;;;7.78;;
50789;SDS011;37287;47.554;7.844;2023-02-22T16:59:32;11.07;;;7.70;;
50789;SDS011;37287;47.554;7.844;2023-02-22T17:02:03;9.55;;;7.13;;
50789;SDS011;37287;47.554;7.844;2023-02-22T17:04:37;9.23;;;7.15;;
50789;SDS011;37287;47.554;7.844;2023-02-22T17:07:05;8.75;;;6.90;;
50789;SDS011;37287;47.554;7.844;2023-02-22T17:09:34;9.75;;;7.45;;
50789;SDS011;37287;47.554;7.844;2023-02-22T17:12:02;9.02;;;7.35;;
50789;SDS011;37287;47.554;7.844;2023-02-22T17:14:30;11.80;;;7.82;;
50789;SDS011;37287;47.554;7.844;2023-02-22T17:16:59;10.52;;;7.55;;
50789;SDS011;37287;47.554;7.844;2023-02-22T17:19:26;14.40;;;7.95;;
50789;SDS011;37287;47.554;7.844;2023-02-22T17:21:53;10.93;;;7.72;;
50789;SDS011;37287;47.554;7.844;2023-02-22T17:24:21;11.88;;;7.10;;
50789;SDS011;37287;47.554;7.844;2023-02-22T17:26:49;10.27;;;7.97;;
50789;SDS011;37287;47.554;7.844;2023-02-22T17:29:18;11.10;;;8.10;;
50789;SDS011;37287;47.554;7.844;2023-02-22T17:31:45;9.45;;;7.65;;